Track Склярова Карина

Time Latitude Longitude Accuracy (66% radius in meters) Altitude (meters) Speed (km/hour) Bearing (degrees) Battery (%) GPS flag
03:37:44 51.900239 107.668970 5 689 0.40000000596046 253.69999694824 27 1 delete
03:37:36 51.900233 107.668942 5 689 0 0 27 1 delete
03:37:33 51.900208 107.668924 5 688 0 0 27 1 delete
03:37:21 51.900202 107.668873 5 693 0 0 27 1 delete
03:37:15 51.900203 107.668793 5 695 2.0799999237061 135.39999389648 27 1 delete
03:37:10 51.900275 107.668700 4 694 1.4900000095367 155.30000305176 27 1 delete
03:37:09 51.900288 107.668686 5 693 0.79000002145767 133.60000610352 27 1 delete
03:37:00 51.900350 107.668597 3 697 0.61000001430511 141 27 1 delete
03:36:59 51.900358 107.668587 3 698 1.0099999904633 144.80000305176 27 1 delete
03:36:50 51.900391 107.668530 5 699 0.56999999284744 186.30000305176 27 1 delete
03:36:46 51.900442 107.668521 5 698 2.1099998950958 178.10000610352 27 1 delete
03:36:38 51.900523 107.668501 6 693 0.94999998807907 177.89999389648 27 1 delete
03:36:35 51.900543 107.668476 5 693 0.68000000715256 162.89999389648 27 1 delete
03:36:27 51.900574 107.668354 4 695 1.210000038147 72.400001525879 27 1 delete
03:36:26 51.900571 107.668334 4 696 1.2400000095367 71 27 1 delete
03:36:15 51.900630 107.668298 4 695 0.28999999165535 175.30000305176 27 1 delete
03:36:04 51.900608 107.668224 5 695 1.0099999904633 78.099998474121 27 1 delete
03:36:02 51.900603 107.668193 5 694 0.43999999761581 96.699996948242 27 1 delete
03:35:52 51.900604 107.668066 6 690 1.0099999904633 80.300003051758 27 1 delete
03:35:51 51.900599 107.668047 6 690 1.1399999856949 75.800003051758 27 1 delete
03:35:41 51.900552 107.667910 4 691 0.61000001430511 95.5 27 1 delete
03:35:28 51.900544 107.667860 4 689 0 0 27 1 delete
03:35:17 51.900564 107.667837 5 691 0 0 27 1 delete
03:35:06 51.900575 107.667809 6 693 0 0 27 1 delete
03:34:56 51.900535 107.667766 6 694 1.5599999427795 41 27 1 delete
03:34:55 51.900514 107.667742 7 693 1.4900000095367 46.200000762939 27 1 delete
03:34:50 51.900465 107.667650 6 693 0.97000002861023 71.400001525879 27 1 delete
03:34:43 51.900448 107.667631 5 691 0 0 27 1 delete
03:34:33 51.900405 107.667523 6 691 1.1499999761581 47.700000762939 27 1 delete
03:34:27 51.900344 107.667405 6 691 1.210000038147 81.400001525879 27 1 delete
03:34:21 51.900326 107.667294 7 692 0.75 64.199996948242 27 1 delete
03:34:18 51.900324 107.667252 6 691 0.85000002384186 84.800003051758 27 1 delete
03:34:10 51.900260 107.667138 5 691 2.0699999332428 56.200000762939 27 1 delete
03:34:00 51.900197 107.666987 6 687 1 90.699996948242 27 1 delete
03:33:49 51.900166 107.666946 6 686 0 0 27 1 delete
03:33:38 51.900184 107.666860 5 682 1.1100000143051 83.599998474121 27 1 delete
03:33:28 51.900168 107.666836 6 685 0.15999999642372 163.39999389648 27 1 delete
03:33:17 51.900175 107.666896 6 682 0 0 27 1 delete
03:33:12 51.900185 107.666826 7 683 1.0900000333786 56.799999237061 27 1 delete
03:33:07 51.900129 107.666693 9 682 1.2999999523163 94.199996948242 27 1 delete
03:33:06 51.900129 107.666669 7 682 1.3099999427795 93 27 1 delete
03:32:55 51.900129 107.666523 4 679 0.38999998569489 18 27 1 delete
03:32:43 51.900130 107.666532 6 681 0 0 27 1 delete
03:32:36 51.900109 107.666541 5 679 0.25999999046326 18 27 1 delete
03:32:31 51.900068 107.666565 6 675 0.40000000596046 338.5 27 1 delete
03:32:26 51.900023 107.666592 7 671 0.95999997854233 8.8999996185303 27 1 delete
03:32:18 51.899962 107.666575 7 675 0.28000000119209 309.10000610352 27 1 delete
03:32:15 51.899929 107.666590 7 674 1.6599999666214 7.3000001907349 27 1 delete
03:32:09 51.899836 107.666611 6 675 1.0700000524521 308.60000610352 27 1 delete
03:32:06 51.899801 107.666665 5 675 1.6799999475479 309.70001220703 27 1 delete